Time;durP1;ratioP1;P1;durP2;ratioP2;P2;SDS_P1;SDS_P2;PMS_P1;PMS_P2;Temp;Humidity;BMP_temperature;BMP_pressure;BME280_temperature;BME280_humidity;BME280_pressure;Samples;Min_cycle;Max_cycle;Signal;HPM_P1;HPM_P2
2021/08/01 00:00:35;;;;;;;0.00;0.00;;;21.30;81.70;;;;;;4165923;28;20389;-54
2021/08/01 00:02:58;;;;;;;0.00;0.00;;;21.30;81.70;;;;;;4174653;28;20055;-55
2021/08/01 00:05:20;;;;;;;0.08;0.08;;;21.30;81.80;;;;;;4159837;28;20061;-55
2021/08/01 00:07:43;;;;;;;0.00;0.00;;;21.30;82.70;;;;;;4174865;28;20057;-56
2021/08/01 00:10:07;;;;;;;0.00;0.00;;;21.30;81.80;;;;;;4174335;28;20083;-52
2021/08/01 00:12:30;;;;;;;0.00;0.00;;;21.20;81.70;;;;;;4174641;28;20053;-52
2021/08/01 00:14:52;;;;;;;0.10;0.10;;;21.20;81.70;;;;;;4174388;28;20049;-55
2021/08/01 00:17:14;;;;;;;0.00;0.00;;;21.20;81.70;;;;;;4174391;28;20107;-53
2021/08/01 00:19:36;;;;;;;0.00;0.00;;;21.20;81.70;;;;;;4174612;28;20103;-55
2021/08/01 00:21:58;;;;;;;0.00;0.00;;;21.20;81.70;;;;;;4174551;28;20053;-53
2021/08/01 00:24:22;;;;;;;0.20;0.20;;;21.20;81.80;;;;;;4171568;28;20049;-52
2021/08/01 00:26:44;;;;;;;0.00;0.00;;;21.20;81.80;;;;;;4174566;28;20051;-53
2021/08/01 00:29:06;;;;;;;0.20;0.20;;;21.20;81.80;;;;;;4173158;28;20064;-54
2021/08/01 00:31:30;;;;;;;0.10;0.10;;;21.20;81.90;;;;;;4174220;28;20057;-51
2021/08/01 00:33:53;;;;;;;0.10;0.10;;;21.20;81.90;;;;;;4174507;28;20056;-55
2021/08/01 00:36:15;;;;;;;0.00;0.00;;;21.20;81.80;;;;;;4174123;28;20084;-54
2021/08/01 00:38:37;;;;;;;0.00;0.00;;;21.20;81.80;;;;;;4174403;28;20041;-53
2021/08/01 00:41:01;;;;;;;0.00;0.00;;;21.20;82.70;;;;;;4174409;28;20082;-54
2021/08/01 00:43:23;;;;;;;0.00;0.00;;;21.20;81.90;;;;;;4172842;28;20491;-52
2021/08/01 00:45:46;;;;;;;0.10;0.10;;;21.20;81.90;;;;;;4156485;28;20053;-54
2021/08/01 00:48:11;;;;;;;0.00;0.00;;;21.20;82.00;;;;;;4157856;28;20412;-53
2021/08/01 00:50:36;;;;;;;0.10;0.10;;;21.20;81.90;;;;;;4182880;28;20152;-52
2021/08/01 00:52:58;;;;;;;0.08;0.08;;;21.20;81.90;;;;;;4174066;28;20048;-55
2021/08/01 00:55:22;;;;;;;0.00;0.00;;;21.20;82.10;;;;;;4173821;28;20056;-51
2021/08/01 00:57:47;;;;;;;0.00;0.00;;;21.20;82.00;;;;;;4174178;28;20202;-51
2021/08/01 01:00:17;;;;;;;0.50;0.50;;;21.20;82.00;;;;;;4173530;28;20508;-54
2021/08/01 01:02:41;;;;;;;0.00;0.00;;;21.20;82.00;;;;;;4174282;28;20055;-52
2021/08/01 01:05:12;;;;;;;0.00;0.00;;;21.20;82.10;;;;;;4171708;28;20102;-51
2021/08/01 01:07:38;;;;;;;0.25;0.25;;;21.20;82.10;;;;;;4169897;28;20049;-53
2021/08/01 01:10:05;;;;;;;0.00;0.00;;;21.20;82.10;;;;;;4159197;28;20178;-51
2021/08/01 01:12:43;;;;;;;0.30;0.30;;;21.20;82.10;;;;;;4173741;28;20076;-53
2021/08/01 01:15:11;;;;;;;0.75;0.63;;;21.20;82.10;;;;;;4169989;28;20060;-53
2021/08/01 01:17:34;;;;;;;0.03;0.03;;;21.20;82.10;;;;;;4174889;28;20499;-54
2021/08/01 01:20:16;;;;;;;0.00;0.00;;;21.20;82.10;;;;;;4177069;28;20049;-53
2021/08/01 01:22:47;;;;;;;0.00;0.00;;;21.10;82.20;;;;;;4176565;28;20049;-53
2021/08/01 01:25:37;;;;;;;0.10;0.10;;;21.20;82.20;;;;;;4177003;28;20063;-51
2021/08/01 01:28:08;;;;;;;0.00;0.00;;;21.10;82.10;;;;;;4175528;28;20064;-54
2021/08/01 01:30:34;;;;;;;0.20;0.20;;;21.10;82.20;;;;;;4165664;28;20095;-54
2021/08/01 01:33:07;;;;;;;0.00;0.00;;;21.10;82.20;;;;;;4176917;28;20052;-52
2021/08/01 01:35:36;;;;;;;0.00;0.00;;;21.10;82.20;;;;;;4159041;28;20561;-55
2021/08/01 01:38:00;;;;;;;0.00;0.00;;;21.10;82.30;;;;;;4160307;28;20045;-55
2021/08/01 01:40:42;;;;;;;0.22;0.22;;;21.10;82.30;;;;;;4160346;28;20054;-54
2021/08/01 01:43:28;;;;;;;0.65;0.65;;;21.10;82.30;;;;;;4161979;28;20059;-53
2021/08/01 01:45:53;;;;;;;0.03;0.03;;;21.10;82.30;;;;;;4175297;28;20057;-53
2021/08/01 01:48:15;;;;;;;2.60;0.73;;;21.10;82.40;;;;;;4176311;28;20464;-52
2021/08/01 01:50:37;;;;;;;0.08;0.08;;;21.10;82.50;;;;;;4176766;28;20045;-52
2021/08/01 01:53:02;;;;;;;0.00;0.00;;;21.10;82.40;;;;;;4174738;28;20064;-54
2021/08/01 01:55:28;;;;;;;0.00;0.00;;;21.10;82.50;;;;;;4175285;28;20059;-49
2021/08/01 01:57:52;;;;;;;0.00;0.00;;;21.10;83.40;;;;;;4176646;28;20068;-53
2021/08/01 02:00:16;;;;;;;0.00;0.00;;;21.10;82.50;;;;;;4160094;28;20505;-55
2021/08/01 02:02:38;;;;;;;0.52;0.52;;;21.10;82.50;;;;;;4159953;28;20495;-52
2021/08/01 02:05:02;;;;;;;0.00;0.00;;;21.10;82.50;;;;;;4157613;28;20096;-51
2021/08/01 02:07:44;;;;;;;0.22;0.22;;;21.10;82.50;;;;;;4159862;28;20045;-52
2021/08/01 02:10:54;;;;;;;1.27;0.35;;;21.10;82.60;;;;;;4159203;28;20412;-52
2021/08/01 02:13:22;;;;;;;0.00;0.00;;;21.10;82.60;;;;;;4163203;28;20064;-55
2021/08/01 02:15:52;;;;;;;0.45;0.45;;;21.00;82.50;;;;;;4174737;28;20061;-52
2021/08/01 02:18:22;;;;;;;0.00;0.00;;;21.10;82.60;;;;;;4174297;28;20064;-55
2021/08/01 02:20:46;;;;;;;0.00;0.00;;;21.00;82.60;;;;;;4176087;28;20056;-54
2021/08/01 02:23:17;;;;;;;0.00;0.00;;;21.00;82.60;;;;;;4175946;28;20072;-54
2021/08/01 02:25:43;;;;;;;0.00;0.00;;;21.00;82.60;;;;;;4175502;28;20056;-53
2021/08/01 02:28:08;;;;;;;0.00;0.00;;;21.00;82.70;;;;;;4175710;28;20051;-54
2021/08/01 02:30:31;;;;;;;0.20;0.20;;;21.10;82.80;;;;;;4175960;28;20472;-55
2021/08/01 02:32:56;;;;;;;0.00;0.00;;;21.00;82.70;;;;;;4175814;28;20458;-51
2021/08/01 02:35:20;;;;;;;0.00;0.00;;;21.00;82.70;;;;;;4176126;28;20152;-54
2021/08/01 02:37:45;;;;;;;0.00;0.00;;;21.00;82.70;;;;;;4174477;28;20037;-50
2021/08/01 02:40:08;;;;;;;0.13;0.13;;;21.00;82.70;;;;;;4175694;28;20104;-51
2021/08/01 02:42:33;;;;;;;0.00;0.00;;;21.00;82.70;;;;;;4174349;28;20118;-53
2021/08/01 02:45:00;;;;;;;0.00;0.00;;;21.00;82.70;;;;;;4159324;28;20067;-51
2021/08/01 02:47:24;;;;;;;0.08;0.08;;;21.00;82.70;;;;;;4158023;28;20153;-54
2021/08/01 02:49:47;;;;;;;0.10;0.10;;;21.00;82.70;;;;;;4159319;28;20095;-55
2021/08/01 02:52:13;;;;;;;0.00;0.00;;;21.00;82.70;;;;;;4159174;28;20053;-52
2021/08/01 02:54:38;;;;;;;0.00;0.00;;;21.00;82.70;;;;;;4171862;28;20041;-49
2021/08/01 02:57:05;;;;;;;0.05;0.05;;;21.00;82.70;;;;;;4157724;28;20088;-54
2021/08/01 02:59:28;;;;;;;0.08;0.08;;;21.00;82.80;;;;;;4172365;28;20052;-50
2021/08/01 03:01:54;;;;;;;0.10;0.10;;;21.00;82.70;;;;;;4173954;28;20086;-51
2021/08/01 03:04:18;;;;;;;0.00;0.00;;;21.00;82.80;;;;;;4172880;28;20144;-50
2021/08/01 03:06:42;;;;;;;0.13;0.13;;;21.00;82.80;;;;;;4173912;28;20597;-53
2021/08/01 03:09:05;;;;;;;0.00;0.00;;;21.00;82.80;;;;;;4174137;28;20473;-52
2021/08/01 03:11:31;;;;;;;0.00;0.00;;;21.00;82.80;;;;;;4175063;28;20099;-52
2021/08/01 03:13:54;;;;;;;0.10;0.10;;;21.00;82.80;;;;;;4173273;28;20131;-52
2021/08/01 03:16:16;;;;;;;0.00;0.00;;;21.00;82.80;;;;;;4173436;28;20526;-55
2021/08/01 03:18:40;;;;;;;0.13;0.13;;;21.00;82.80;;;;;;4175804;28;20075;-54
2021/08/01 03:21:02;;;;;;;3.40;0.43;;;21.00;82.80;;;;;;4173413;28;20080;-55
2021/08/01 03:23:37;;;;;;;0.30;0.30;;;20.90;82.90;;;;;;4172847;28;20049;-54
2021/08/01 03:26:20;;;;;;;0.05;0.05;;;20.90;82.90;;;;;;4173339;28;20056;-51
2021/08/01 03:28:42;;;;;;;0.15;0.15;;;21.00;82.90;;;;;;4174671;28;20708;-52
2021/08/01 03:31:05;;;;;;;0.15;0.15;;;20.90;82.90;;;;;;4174601;28;20131;-53
2021/08/01 03:33:34;;;;;;;0.00;0.00;;;21.00;83.00;;;;;;4156896;28;20053;-54
2021/08/01 03:35:58;;;;;;;0.00;0.00;;;20.90;82.90;;;;;;4158458;28;20055;-51
2021/08/01 03:38:40;;;;;;;0.17;0.17;;;20.90;83.00;;;;;;4158297;28;20577;-53
2021/08/01 03:41:31;;;;;;;0.38;0.35;;;20.90;83.00;;;;;;4157911;28;20526;-52
2021/08/01 03:43:53;;;;;;;0.25;0.25;;;20.90;83.10;;;;;;4167046;28;20056;-52
2021/08/01 03:46:15;;;;;;;0.00;0.00;;;20.90;83.10;;;;;;4174896;28;20507;-53
2021/08/01 03:48:37;;;;;;;2.10;0.47;;;20.90;83.20;;;;;;4174794;28;20045;-54
2021/08/01 03:51:01;;;;;;;0.40;0.40;;;20.90;83.20;;;;;;4174635;28;20048;-56
2021/08/01 03:53:23;;;;;;;0.25;0.25;;;20.90;83.20;;;;;;4174626;28;20049;-49
2021/08/01 03:55:45;;;;;;;0.30;0.30;;;20.90;83.30;;;;;;4174870;28;20052;-54
2021/08/01 03:58:07;;;;;;;0.25;0.25;;;20.90;84.10;;;;;;4173916;28;20049;-53
2021/08/01 04:00:29;;;;;;;0.70;0.70;;;20.90;83.20;;;;;;4174549;28;20077;-55
2021/08/01 04:02:51;;;;;;;0.10;0.10;;;20.90;83.30;;;;;;4174093;28;20450;-51
2021/08/01 04:05:13;;;;;;;0.95;0.95;;;20.90;83.40;;;;;;4174687;28;20793;-49
2021/08/01 04:07:37;;;;;;;0.00;0.00;;;20.90;83.40;;;;;;4174421;28;20045;-56
2021/08/01 04:09:59;;;;;;;0.80;0.45;;;20.90;83.50;;;;;;4174669;28;20518;-54
2021/08/01 04:12:22;;;;;;;0.00;0.00;;;20.90;83.50;;;;;;4174449;28;20492;-54
2021/08/01 04:14:44;;;;;;;0.00;0.00;;;20.80;83.50;;;;;;4158256;28;20403;-56
2021/08/01 04:17:07;;;;;;;0.00;0.00;;;20.90;83.50;;;;;;4158178;28;20480;-54
2021/08/01 04:19:29;;;;;;;0.30;0.30;;;20.90;83.50;;;;;;4171642;28;20045;-56
2021/08/01 04:21:51;;;;;;;0.13;0.13;;;20.90;83.50;;;;;;4173099;28;20164;-54
2021/08/01 04:24:14;;;;;;;0.43;0.43;;;20.90;83.50;;;;;;4174343;28;20075;-54
2021/08/01 04:26:36;;;;;;;0.43;0.43;;;20.90;83.40;;;;;;4174231;28;20513;-53
2021/08/01 04:28:59;;;;;;;0.13;0.13;;;20.90;83.40;;;;;;4174320;28;20454;-50
2021/08/01 04:31:21;;;;;;;0.05;0.05;;;20.90;83.40;;;;;;4174967;28;20135;-52
2021/08/01 04:33:42;;;;;;;0.57;0.43;;;20.90;83.40;;;;;;4174627;28;20052;-51
2021/08/01 04:36:05;;;;;;;0.00;0.00;;;20.90;83.40;;;;;;4174544;28;20496;-50
2021/08/01 04:38:27;;;;;;;0.08;0.08;;;20.90;83.50;;;;;;4174397;28;20052;-54
2021/08/01 04:40:51;;;;;;;0.38;0.38;;;20.90;83.50;;;;;;4174430;28;20102;-54
2021/08/01 04:43:13;;;;;;;0.35;0.30;;;20.90;83.50;;;;;;4169637;28;20053;-55
2021/08/01 04:45:35;;;;;;;0.10;0.10;;;20.90;83.50;;;;;;4174202;28;20044;-54
2021/08/01 04:47:56;;;;;;;0.47;0.47;;;20.90;83.50;;;;;;4174182;28;20475;-53
2021/08/01 04:50:19;;;;;;;0.10;0.10;;;20.90;84.40;;;;;;4174366;28;20059;-50
2021/08/01 04:52:41;;;;;;;0.52;0.52;;;20.90;83.50;;;;;;4175457;28;20419;-52
2021/08/01 04:55:03;;;;;;;0.00;0.00;;;20.90;83.50;;;;;;4177369;28;20422;-54
2021/08/01 04:57:27;;;;;;;0.15;0.15;;;20.90;83.50;;;;;;4177111;28;20140;-56
2021/08/01 04:59:49;;;;;;;0.30;0.30;;;20.90;83.50;;;;;;4177191;28;20052;-51
2021/08/01 05:02:11;;;;;;;0.00;0.00;;;20.90;83.50;;;;;;4177644;28;20080;-53
2021/08/01 05:04:33;;;;;;;0.00;0.00;;;20.90;83.50;;;;;;4177677;28;20065;-54
2021/08/01 05:06:55;;;;;;;0.25;0.25;;;20.90;83.50;;;;;;4177308;28;20107;-54
2021/08/01 05:09:17;;;;;;;0.00;0.00;;;20.90;83.50;;;;;;4177481;28;20057;-55
2021/08/01 05:11:39;;;;;;;0.03;0.03;;;20.90;83.50;;;;;;4176825;28;20410;-55
2021/08/01 05:14:02;;;;;;;0.10;0.10;;;20.90;83.50;;;;;;4176987;28;20158;-52
2021/08/01 05:16:27;;;;;;;0.00;0.00;;;20.90;83.60;;;;;;4177305;28;20498;-52
2021/08/01 05:18:49;;;;;;;1.02;0.52;;;20.90;83.70;;;;;;4177231;28;20131;-55
2021/08/01 05:21:11;;;;;;;0.40;0.40;;;20.90;83.70;;;;;;4176900;28;20048;-53
2021/08/01 05:23:33;;;;;;;0.63;0.63;;;20.90;83.70;;;;;;4177197;28;20098;-52
2021/08/01 05:25:57;;;;;;;0.00;0.00;;;20.90;83.70;;;;;;4176908;28;20132;-53
2021/08/01 05:28:19;;;;;;;0.10;0.10;;;20.90;83.80;;;;;;4176974;28;20045;-53
2021/08/01 05:30:42;;;;;;;0.35;0.35;;;20.90;83.80;;;;;;4177157;28;20461;-56
2021/08/01 05:33:06;;;;;;;1.23;0.82;;;20.90;83.80;;;;;;4176838;28;20544;-55
2021/08/01 05:35:28;;;;;;;0.10;0.10;;;20.90;84.50;;;;;;4176657;28;20514;-49
2021/08/01 05:37:50;;;;;;;0.80;0.70;;;20.90;84.20;;;;;;4176640;28;20037;-53
2021/08/01 05:40:12;;;;;;;0.00;0.00;;;20.90;84.00;;;;;;4176192;28;20136;-50
2021/08/01 05:42:34;;;;;;;0.68;0.68;;;20.90;84.00;;;;;;4176155;28;20518;-56
2021/08/01 05:44:56;;;;;;;0.45;0.45;;;20.90;83.90;;;;;;4176154;28;20045;-55
2021/08/01 05:47:20;;;;;;;0.17;0.17;;;20.90;84.00;;;;;;4176005;28;20061;-53
2021/08/01 05:49:42;;;;;;;0.00;0.00;;;20.90;84.00;;;;;;4176525;28;20056;-55
2021/08/01 05:52:05;;;;;;;0.22;0.22;;;20.90;84.10;;;;;;4176366;28;20045;-50
2021/08/01 05:54:27;;;;;;;0.22;0.22;;;20.90;84.10;;;;;;4176732;28;20103;-54
2021/08/01 05:56:49;;;;;;;3.33;0.63;;;20.90;84.10;;;;;;4176379;28;20059;-56
2021/08/01 05:59:11;;;;;;;0.10;0.10;;;20.90;84.10;;;;;;4176537;28;20044;-54
2021/08/01 06:01:33;;;;;;;0.35;0.30;;;20.90;84.10;;;;;;4176265;28;20049;-54
2021/08/01 06:03:56;;;;;;;0.28;0.28;;;20.90;84.10;;;;;;4176081;28;20051;-52
2021/08/01 06:06:20;;;;;;;0.08;0.08;;;20.90;84.10;;;;;;4176621;28;20132;-56
2021/08/01 06:08:46;;;;;;;0.70;0.70;;;20.90;84.20;;;;;;4176504;28;20499;-54
2021/08/01 06:11:09;;;;;;;0.13;0.13;;;20.90;84.20;;;;;;4174399;28;20045;-52
2021/08/01 06:13:31;;;;;;;0.10;0.10;;;20.90;84.20;;;;;;4176205;28;20126;-55
2021/08/01 06:15:53;;;;;;;0.00;0.00;;;20.90;84.20;;;;;;4175550;28;20068;-54
2021/08/01 06:18:15;;;;;;;0.00;0.00;;;20.90;84.20;;;;;;4176042;28;20491;-53
2021/08/01 06:20:39;;;;;;;0.00;0.00;;;20.90;84.10;;;;;;4176137;28;20053;-55
2021/08/01 06:23:01;;;;;;;3.72;1.20;;;20.90;84.10;;;;;;4175991;28;20135;-52
2021/08/01 06:25:23;;;;;;;0.00;0.00;;;20.90;84.20;;;;;;4175943;28;20094;-55
2021/08/01 06:27:45;;;;;;;0.00;0.00;;;20.90;84.10;;;;;;4174831;28;20045;-52
2021/08/01 06:30:11;;;;;;;0.00;0.00;;;20.90;84.10;;;;;;4176029;28;20091;-56
2021/08/01 06:32:33;;;;;;;0.30;0.30;;;20.90;84.10;;;;;;4175469;28;20076;-53
2021/08/01 06:34:55;;;;;;;0.40;0.40;;;20.90;84.10;;;;;;4176051;28;20083;-53
2021/08/01 06:37:19;;;;;;;0.10;0.10;;;20.90;84.00;;;;;;4175436;28;20061;-50
2021/08/01 06:39:43;;;;;;;0.32;0.32;;;20.90;83.80;;;;;;4175627;28;20077;-55
2021/08/01 06:42:06;;;;;;;0.05;0.05;;;21.00;83.90;;;;;;4175438;28;20147;-54
2021/08/01 06:44:28;;;;;;;7.15;1.00;;;20.90;83.80;;;;;;4175795;28;20053;-54
2021/08/01 06:46:50;;;;;;;0.00;0.00;;;20.90;83.80;;;;;;4174339;28;20041;-53
2021/08/01 06:49:12;;;;;;;0.00;0.00;;;20.90;83.80;;;;;;4175672;28;20061;-52
2021/08/01 06:51:34;;;;;;;1.65;1.55;;;20.90;83.80;;;;;;4175033;28;20056;-56
2021/08/01 06:53:58;;;;;;;0.25;0.25;;;20.90;83.80;;;;;;4175556;28;20122;-56
2021/08/01 06:56:20;;;;;;;3.15;0.90;;;20.90;83.70;;;;;;4175708;28;20083;-56
2021/08/01 06:58:42;;;;;;;5.18;2.50;;;20.90;83.70;;;;;;4175608;28;20514;-54
2021/08/01 07:01:04;;;;;;;0.40;0.40;;;20.90;86.20;;;;;;4175588;28;20064;-53
2021/08/01 07:03:27;;;;;;;0.57;0.57;;;21.00;90.60;;;;;;4175204;28;20059;-53
2021/08/01 07:05:50;;;;;;;0.20;0.20;;;21.00;91.00;;;;;;4174087;28;20414;-55
2021/08/01 07:08:12;;;;;;;0.28;0.28;;;21.00;90.80;;;;;;4175331;28;20132;-55
2021/08/01 07:10:35;;;;;;;0.00;0.00;;;21.00;90.30;;;;;;4174795;28;20057;-54
2021/08/01 07:13:03;;;;;;;0.15;0.15;;;21.00;89.10;;;;;;4174954;28;20465;-51
2021/08/01 07:15:26;;;;;;;0.90;0.90;;;21.00;88.10;;;;;;4173158;28;20093;-56
2021/08/01 07:17:48;;;;;;;0.52;0.52;;;21.00;87.30;;;;;;4174664;28;20507;-56
2021/08/01 07:20:12;;;;;;;1.02;1.02;;;21.00;86.90;;;;;;4174564;28;20056;-54
2021/08/01 07:22:34;;;;;;;0.30;0.30;;;21.00;86.50;;;;;;4174898;28;20051;-51
2021/08/01 07:24:57;;;;;;;0.22;0.22;;;21.00;86.20;;;;;;4174935;28;20076;-48
2021/08/01 07:27:20;;;;;;;3.75;0.60;;;21.00;86.00;;;;;;4175189;28;20072;-52
2021/08/01 07:29:42;;;;;;;0.38;0.38;;;21.00;85.80;;;;;;4174818;28;20052;-53
2021/08/01 07:32:05;;;;;;;0.55;0.55;;;21.00;85.50;;;;;;4174605;28;20510;-53
2021/08/01 07:34:27;;;;;;;0.15;0.15;;;21.00;85.40;;;;;;4175193;28;20045;-49
2021/08/01 07:36:49;;;;;;;0.00;0.00;;;21.00;85.20;;;;;;4174684;28;20048;-53
2021/08/01 07:39:11;;;;;;;0.17;0.17;;;21.00;85.00;;;;;;4174576;28;20072;-50
2021/08/01 07:41:34;;;;;;;0.98;0.98;;;21.00;85.00;;;;;;4174912;28;20071;-53
2021/08/01 07:43:57;;;;;;;0.28;0.28;;;21.00;85.00;;;;;;4174611;28;20519;-51
2021/08/01 07:46:19;;;;;;;0.38;0.38;;;21.00;84.90;;;;;;4164446;28;20057;-67
2021/08/01 07:51:10;;;;;;;20.42;12.15;;;21.70;92.00;;;;;;4222252;27;20435;-50
2021/08/01 07:53:32;;;;;;;12.52;11.07;;;21.70;83.50;;;;;;4221716;27;20459;-55
2021/08/01 07:55:54;;;;;;;12.18;10.98;;;21.60;83.10;;;;;;4221596;27;20405;-54
2021/08/01 07:58:16;;;;;;;12.98;9.63;;;21.40;83.40;;;;;;4221630;27;20759;-53
2021/08/01 08:00:38;;;;;;;11.30;9.25;;;21.30;83.80;;;;;;4221564;27;20959;-54
2021/08/01 08:03:00;;;;;;;7.50;6.90;;;21.20;84.00;;;;;;4219982;27;20405;-55
2021/08/01 08:05:23;;;;;;;7.82;6.20;;;21.10;84.00;;;;;;4221106;27;20418;-55
2021/08/01 08:07:47;;;;;;;8.50;5.65;;;21.10;87.60;;;;;;4221561;27;20404;-55
2021/08/01 08:10:10;;;;;;;6.60;4.65;;;21.10;89.30;;;;;;4204588;28;20399;-57
2021/08/01 08:12:32;;;;;;;4.18;3.78;;;21.20;89.60;;;;;;4204599;28;20463;-55
2021/08/01 08:14:55;;;;;;;3.05;2.85;;;21.30;89.40;;;;;;4204383;28;20890;-53
2021/08/01 08:17:17;;;;;;;3.77;3.20;;;21.40;88.80;;;;;;4205046;28;20469;-53
2021/08/01 08:19:40;;;;;;;5.30;3.30;;;21.40;87.30;;;;;;4220242;27;20405;-54
2021/08/01 08:22:02;;;;;;;3.10;2.20;;;21.30;86.30;;;;;;4219760;27;20437;-55
2021/08/01 08:24:27;;;;;;;2.15;1.95;;;21.30;85.20;;;;;;4210605;27;20459;-52
2021/08/01 08:26:49;;;;;;;1.90;1.80;;;21.30;84.50;;;;;;4221065;27;20401;-53
2021/08/01 08:29:11;;;;;;;1.90;1.80;;;21.30;85.00;;;;;;4207235;27;20409;-55
2021/08/01 08:31:33;;;;;;;3.30;1.90;;;21.30;83.60;;;;;;4215957;27;20405;-55
2021/08/01 08:33:56;;;;;;;1.75;1.65;;;21.20;83.50;;;;;;4220968;27;20436;-52
2021/08/01 08:37:22;;;;;;;1.40;1.30;;;21.40;91.80;;;;;;4257752;27;20115;-53
2021/08/01 08:39:44;;;;;;;1.33;1.02;;;21.60;84.80;;;;;;4256024;27;20273;-49
2021/08/01 08:42:06;;;;;;;1.13;1.02;;;21.50;84.30;;;;;;4255956;27;20047;-54
2021/08/01 08:44:29;;;;;;;0.70;0.70;;;21.40;83.70;;;;;;4238908;27;20051;-53
2021/08/01 08:46:53;;;;;;;1.42;0.93;;;21.30;84.20;;;;;;4241915;27;20049;-51
2021/08/01 08:49:16;;;;;;;1.70;0.70;;;21.20;84.60;;;;;;4255956;27;20047;-50
2021/08/01 08:51:39;;;;;;;1.38;0.45;;;21.10;84.80;;;;;;4253335;27;20055;-52
2021/08/01 08:54:04;;;;;;;0.60;0.60;;;21.10;85.20;;;;;;4251475;27;20528;-51
2021/08/01 08:56:26;;;;;;;0.80;0.63;;;21.00;85.20;;;;;;4246762;27;20047;-51
2021/08/01 08:58:53;;;;;;;1.65;0.80;;;21.00;85.40;;;;;;4255798;27;20054;-50
2021/08/01 09:01:15;;;;;;;0.68;0.68;;;21.00;85.60;;;;;;4256288;27;20073;-51
2021/08/01 09:03:37;;;;;;;1.80;0.90;;;21.00;85.70;;;;;;4256238;27;20059;-55
2021/08/01 09:05:59;;;;;;;1.20;0.63;;;21.00;85.80;;;;;;4248789;27;20047;-55
2021/08/01 09:08:23;;;;;;;0.75;0.68;;;20.90;85.80;;;;;;4255673;27;20173;-50
2021/08/01 09:10:46;;;;;;;0.95;0.73;;;20.90;85.90;;;;;;4255196;27;20078;-50
2021/08/01 09:13:08;;;;;;;0.70;0.70;;;20.90;85.90;;;;;;4238667;27;20051;-54
2021/08/01 09:15:30;;;;;;;1.48;0.80;;;20.90;86.10;;;;;;4238539;27;20451;-49
2021/08/01 09:17:54;;;;;;;1.42;0.80;;;20.90;86.00;;;;;;4251239;27;20149;-50
2021/08/01 09:20:19;;;;;;;0.65;0.65;;;20.90;86.00;;;;;;4255764;27;20045;-50
2021/08/01 09:22:41;;;;;;;2.47;0.82;;;20.90;86.10;;;;;;4255308;27;20089;-53
2021/08/01 09:25:17;;;;;;;0.73;0.73;;;20.90;86.20;;;;;;4255819;27;20058;-49
2021/08/01 09:27:41;;;;;;;1.15;1.10;;;20.90;86.20;;;;;;4255839;27;20077;-50
2021/08/01 09:30:04;;;;;;;1.55;0.70;;;20.90;86.10;;;;;;4255765;27;20451;-50
2021/08/01 09:32:30;;;;;;;0.73;0.70;;;20.90;86.20;;;;;;4255181;27;20139;-48
2021/08/01 09:34:53;;;;;;;1.30;0.80;;;21.00;86.50;;;;;;4254255;27;20043;-50
2021/08/01 09:37:29;;;;;;;1.00;0.85;;;21.00;86.40;;;;;;4254965;27;20045;-51
2021/08/01 09:40:05;;;;;;;1.67;0.80;;;21.00;86.30;;;;;;4255531;27;20134;-51
2021/08/01 09:42:42;;;;;;;1.08;0.77;;;20.90;86.30;;;;;;4254359;27;20493;-47
2021/08/01 09:45:13;;;;;;;1.27;1.00;;;20.90;87.20;;;;;;4248459;27;20111;-52
2021/08/01 09:47:35;;;;;;;0.70;0.70;;;20.90;86.30;;;;;;4249326;27;20054;-50
2021/08/01 09:50:06;;;;;;;1.10;0.50;;;20.90;86.30;;;;;;4243380;27;20409;-52
2021/08/01 09:52:28;;;;;;;1.85;0.80;;;20.90;86.30;;;;;;4243442;27;20107;-52
2021/08/01 09:54:50;;;;;;;1.55;0.70;;;21.00;86.40;;;;;;4243120;27;20047;-54
2021/08/01 09:57:17;;;;;;;0.75;0.75;;;20.90;86.30;;;;;;4241409;27;20103;-52
2021/08/01 09:59:41;;;;;;;2.58;0.90;;;20.90;86.20;;;;;;4239614;27;20454;-51
2021/08/01 10:02:04;;;;;;;1.67;0.80;;;20.90;87.20;;;;;;4243031;27;20104;-54
2021/08/01 10:04:28;;;;;;;0.60;0.60;;;20.90;86.50;;;;;;4243571;27;20413;-55
2021/08/01 10:07:01;;;;;;;0.55;0.52;;;20.90;86.20;;;;;;4243226;27;20100;-55
2021/08/01 10:09:26;;;;;;;0.40;0.40;;;21.00;86.50;;;;;;4243716;27;20120;-55
2021/08/01 10:11:53;;;;;;;1.42;0.70;;;21.00;86.50;;;;;;4243620;27;20134;-52
2021/08/01 10:14:16;;;;;;;1.60;0.50;;;21.10;86.20;;;;;;4244030;27;20054;-51
2021/08/01 10:16:39;;;;;;;1.20;0.70;;;21.10;86.00;;;;;;4243067;27;20035;-49
2021/08/01 10:19:01;;;;;;;1.55;0.60;;;21.10;85.80;;;;;;4242990;27;20718;-50
2021/08/01 10:21:25;;;;;;;4.50;1.23;;;21.10;85.80;;;;;;4242996;27;20047;-49
2021/08/01 10:23:49;;;;;;;0.70;0.70;;;21.20;85.60;;;;;;4243465;27;20124;-50
2021/08/01 10:26:11;;;;;;;2.13;1.10;;;21.20;85.40;;;;;;4243191;27;20075;-50
2021/08/01 10:28:36;;;;;;;0.77;0.77;;;21.20;85.30;;;;;;4242627;27;20103;-52
2021/08/01 10:31:03;;;;;;;6.95;1.17;;;21.20;85.20;;;;;;4241681;27;20047;-54
2021/08/01 10:33:32;;;;;;;3.15;1.05;;;21.30;85.10;;;;;;4243256;27;20489;-49
2021/08/01 10:36:00;;;;;;;0.95;0.95;;;21.30;85.00;;;;;;4242891;27;24757;-50
2021/08/01 10:38:26;;;;;;;1.10;1.00;;;21.30;84.90;;;;;;4242189;27;20062;-50
2021/08/01 10:40:52;;;;;;;1.17;1.05;;;21.40;84.70;;;;;;4239934;27;20047;-51
2021/08/01 10:43:19;;;;;;;1.17;0.77;;;21.30;84.50;;;;;;4242901;27;20043;-50
2021/08/01 10:45:44;;;;;;;1.50;0.95;;;21.40;84.30;;;;;;4242633;27;20484;-49
2021/08/01 10:48:07;;;;;;;1.10;0.90;;;21.40;84.30;;;;;;4242744;27;20546;-51
2021/08/01 10:50:32;;;;;;;0.63;0.63;;;21.50;84.20;;;;;;4242747;27;20091;-52
2021/08/01 10:53:26;;;;;;;1.38;0.60;;;21.50;84.10;;;;;;4243131;27;20053;-48
2021/08/01 10:55:48;;;;;;;2.47;0.80;;;21.50;83.70;;;;;;4243087;27;20051;-52
2021/08/01 10:58:12;;;;;;;0.82;0.82;;;21.60;83.60;;;;;;4242403;27;20132;-49
2021/08/01 11:01:01;;;;;;;4.60;0.77;;;21.50;83.50;;;;;;4241532;27;20061;-49
2021/08/01 11:03:24;;;;;;;1.05;0.65;;;21.60;83.40;;;;;;4225442;28;20051;-49
2021/08/01 11:05:47;;;;;;;0.75;0.75;;;21.60;83.10;;;;;;4227166;27;20067;-53
2021/08/01 11:08:09;;;;;;;2.47;0.98;;;21.60;82.70;;;;;;4242588;27;20553;-50
2021/08/01 11:10:32;;;;;;;1.88;0.90;;;21.60;82.70;;;;;;4242351;27;20142;-54
2021/08/01 11:12:54;;;;;;;0.85;0.85;;;21.50;82.70;;;;;;4239762;27;20043;-53
2021/08/01 11:15:17;;;;;;;2.42;0.80;;;21.50;82.40;;;;;;4241812;27;20062;-54
2021/08/01 11:18:08;;;;;;;4.45;1.17;;;21.50;82.40;;;;;;4241710;27;20057;-54
2021/08/01 11:20:51;;;;;;;0.90;0.90;;;21.50;82.30;;;;;;4242164;27;20051;-50
2021/08/01 11:23:13;;;;;;;2.33;0.95;;;21.50;82.20;;;;;;4241019;27;20571;-53
2021/08/01 11:25:36;;;;;;;0.68;0.68;;;21.60;82.10;;;;;;4242254;27;20111;-52
2021/08/01 11:28:21;;;;;;;0.77;0.77;;;21.60;81.90;;;;;;4242861;27;20390;-51
2021/08/01 11:31:18;;;;;;;2.15;1.13;;;21.70;81.70;;;;;;4225017;28;20417;-48
2021/08/01 11:33:42;;;;;;;2.45;1.23;;;21.70;81.50;;;;;;4232569;27;20057;-52
2021/08/01 11:36:30;;;;;;;2.53;1.08;;;21.70;81.20;;;;;;4241250;27;20046;-53
2021/08/01 11:39:06;;;;;;;4.97;1.05;;;21.70;81.20;;;;;;4232858;27;20047;-52
2021/08/01 11:41:46;;;;;;;3.33;1.40;;;21.70;81.20;;;;;;4241127;27;20100;-53
2021/08/01 11:44:12;;;;;;;0.90;0.90;;;21.70;81.10;;;;;;4241747;27;20049;-49
2021/08/01 11:46:58;;;;;;;1.08;0.90;;;21.70;80.90;;;;;;4232230;27;20061;-50
2021/08/01 11:49:23;;;;;;;2.72;1.35;;;21.70;80.90;;;;;;4225948;27;20051;-52
2021/08/01 11:51:47;;;;;;;3.47;1.50;;;21.70;80.70;;;;;;4241463;27;20132;-50
2021/08/01 11:54:10;;;;;;;4.68;1.38;;;21.70;80.70;;;;;;4241655;27;20537;-51
2021/08/01 11:56:33;;;;;;;2.22;1.70;;;21.60;80.70;;;;;;4241799;27;20050;-52
2021/08/01 11:58:56;;;;;;;1.98;1.60;;;21.60;80.70;;;;;;4241524;27;20103;-54
2021/08/01 12:01:18;;;;;;;2.97;1.23;;;21.70;80.80;;;;;;4240661;27;20043;-52
2021/08/01 12:03:42;;;;;;;2.05;1.10;;;21.70;80.70;;;;;;4240802;27;20054;-52
2021/08/01 12:06:04;;;;;;;1.17;1.00;;;21.70;80.60;;;;;;4241597;27;20051;-52
2021/08/01 12:08:33;;;;;;;4.80;1.10;;;21.70;80.50;;;;;;4241382;27;20063;-50
2021/08/01 12:11:12;;;;;;;6.13;1.30;;;21.70;80.30;;;;;;4240950;27;20550;-52
2021/08/01 12:13:34;;;;;;;2.13;1.17;;;21.70;79.90;;;;;;4241493;27;20501;-53
2021/08/01 12:15:57;;;;;;;1.83;1.10;;;21.70;79.70;;;;;;4240995;27;20054;-52
2021/08/01 12:18:26;;;;;;;3.67;1.23;;;21.70;80.40;;;;;;4232129;27;20050;-51
2021/08/01 12:20:48;;;;;;;4.63;1.10;;;21.80;79.60;;;;;;4241397;27;20421;-53
2021/08/01 12:23:10;;;;;;;0.95;0.75;;;21.70;79.10;;;;;;4241052;27;20062;-52
2021/08/01 12:25:33;;;;;;;2.53;1.10;;;21.80;79.00;;;;;;4242054;27;20051;-54
2021/08/01 12:27:58;;;;;;;1.52;0.90;;;21.80;78.70;;;;;;4242105;27;20047;-52
2021/08/01 12:30:20;;;;;;;1.38;1.13;;;21.80;78.50;;;;;;4224309;28;20043;-52
2021/08/01 12:32:43;;;;;;;2.55;0.95;;;21.80;78.50;;;;;;4224112;28;20791;-55
2021/08/01 12:35:08;;;;;;;4.10;1.13;;;21.80;78.60;;;;;;4209098;28;20098;-53
2021/08/01 12:37:30;;;;;;;1.77;1.30;;;21.90;78.70;;;;;;4238716;28;20050;-54